createdAt,value
2023-02-07T00:01:30.788Z,99.90
2023-02-07T00:03:59.188Z,99.90
2023-02-07T00:06:32.607Z,99.90
2023-02-07T00:09:04.460Z,99.90
2023-02-07T00:11:32.172Z,99.90
2023-02-07T00:14:00.553Z,99.90
2023-02-07T00:16:28.725Z,99.90
2023-02-07T00:18:59.058Z,99.90
2023-02-07T00:21:28.977Z,99.90
2023-02-07T00:23:57.031Z,99.90
2023-02-07T00:26:26.363Z,99.90
2023-02-07T00:28:55.176Z,99.90
2023-02-07T00:31:30.514Z,99.90
2023-02-07T00:34:01.985Z,99.90
2023-02-07T00:36:33.058Z,99.90
2023-02-07T00:39:03.925Z,99.90
2023-02-07T00:41:32.048Z,99.90
2023-02-07T00:44:01.086Z,99.90
2023-02-07T00:46:29.989Z,99.90
2023-02-07T00:48:57.978Z,99.90
2023-02-07T00:51:26.404Z,99.90
2023-02-07T00:53:57.122Z,99.90
2023-02-07T00:56:27.343Z,99.90
2023-02-07T00:58:55.351Z,99.90
2023-02-07T01:01:24.866Z,99.90
2023-02-07T01:03:52.688Z,99.90
2023-02-07T01:06:21.266Z,99.90
2023-02-07T01:08:49.082Z,99.90
2023-02-07T01:11:18.925Z,99.90
2023-02-07T01:13:46.776Z,99.90
2023-02-07T01:16:30.172Z,99.90
2023-02-07T01:18:58.736Z,99.90
2023-02-07T01:21:28.045Z,99.90
2023-02-07T01:23:57.066Z,99.90
2023-02-07T01:26:26.032Z,99.90
2023-02-07T01:28:55.585Z,99.90
2023-02-07T01:31:24.487Z,99.90
2023-02-07T01:33:57.262Z,99.90
2023-02-07T01:36:27.638Z,99.90
2023-02-07T01:38:55.975Z,99.90
2023-02-07T01:41:24.898Z,99.90
2023-02-07T01:43:53.941Z,99.90
2023-02-07T01:46:21.697Z,99.90
2023-02-07T01:48:50.181Z,99.90
2023-02-07T01:51:17.989Z,99.90
2023-02-07T01:53:46.176Z,99.90
2023-02-07T01:56:29.647Z,99.90
2023-02-07T01:59:05.386Z,99.90
2023-02-07T02:01:33.877Z,99.90
2023-02-07T02:04:01.661Z,99.90
2023-02-07T02:06:32.183Z,99.90
2023-02-07T02:09:01.696Z,99.90
2023-02-07T02:11:48.433Z,99.90
2023-02-07T02:14:58.212Z,99.90
2023-02-07T02:17:28.931Z,99.90
2023-02-07T02:20:21.272Z,99.90
2023-02-07T02:22:58.208Z,99.90
2023-02-07T02:25:41.692Z,99.90
2023-02-07T02:28:20.130Z,99.90
2023-02-07T02:31:00.166Z,99.90
2023-02-07T02:33:38.740Z,99.90
2023-02-07T02:36:31.526Z,99.90
2023-02-07T02:39:23.942Z,99.90
2023-02-07T02:42:17.414Z,99.90
2023-02-07T02:44:58.961Z,99.90
2023-02-07T02:47:29.551Z,99.90
2023-02-07T02:49:58.819Z,99.90
2023-02-07T02:52:48.629Z,99.90
2023-02-07T02:55:22.414Z,99.90
2023-02-07T02:58:00.961Z,99.90
2023-02-07T03:01:01.667Z,99.90
2023-02-07T03:03:47.713Z,99.90
2023-02-07T03:06:33.936Z,99.90
2023-02-07T03:09:19.583Z,99.90
2023-02-07T03:12:13.203Z,99.90
2023-02-07T03:15:00.532Z,99.90
2023-02-07T03:17:38.682Z,99.90
2023-02-07T03:20:12.686Z,99.90
2023-02-07T03:22:41.223Z,99.90
2023-02-07T03:25:10.388Z,99.90
2023-02-07T03:27:39.427Z,99.90
2023-02-07T03:30:13.547Z,99.90
2023-02-07T03:32:53.436Z,99.90
2023-02-07T03:35:31.191Z,99.90
2023-02-07T03:38:01.744Z,99.90
2023-02-07T03:40:33.025Z,99.90
2023-02-07T03:43:08.054Z,99.90
2023-02-07T03:45:36.531Z,99.90
2023-02-07T03:48:04.450Z,99.90
2023-02-07T03:50:33.700Z,99.90
2023-02-07T03:53:01.546Z,99.90
2023-02-07T03:55:29.310Z,99.90
2023-02-07T03:57:57.297Z,99.90
2023-02-07T04:00:25.094Z,99.90
2023-02-07T04:02:53.196Z,99.90
2023-02-07T04:05:21.022Z,99.90
2023-02-07T04:07:48.731Z,99.90
2023-02-07T04:10:16.470Z,99.90
2023-02-07T04:12:44.224Z,99.90
2023-02-07T04:15:12.874Z,99.90
2023-02-07T04:17:40.587Z,99.90
2023-02-07T04:20:09.180Z,99.90
2023-02-07T04:22:37.088Z,99.90
2023-02-07T04:25:06.359Z,99.90
2023-02-07T04:27:34.031Z,99.90
2023-02-07T04:30:01.725Z,99.90
2023-02-07T04:32:29.556Z,99.90
2023-02-07T04:34:57.398Z,99.90
2023-02-07T04:37:25.641Z,99.90
2023-02-07T04:39:53.458Z,99.90
2023-02-07T04:42:21.395Z,99.90
2023-02-07T04:44:49.110Z,99.90
2023-02-07T04:47:16.897Z,99.90
2023-02-07T04:49:44.632Z,99.90
2023-02-07T04:52:12.280Z,99.90
2023-02-07T04:54:40.068Z,99.90
2023-02-07T04:57:07.882Z,99.90
2023-02-07T04:59:35.789Z,99.90
2023-02-07T05:02:03.644Z,99.90
2023-02-07T05:04:31.370Z,99.90
2023-02-07T05:06:59.146Z,99.90
2023-02-07T05:09:27.913Z,99.90
2023-02-07T05:11:55.658Z,99.90
2023-02-07T05:14:23.532Z,99.90
2023-02-07T05:16:51.340Z,99.90
2023-02-07T05:19:19.130Z,99.90
2023-02-07T05:21:46.828Z,99.90
2023-02-07T05:24:14.596Z,99.90
2023-02-07T05:26:42.340Z,99.90
2023-02-07T05:29:10.102Z,99.90
2023-02-07T05:31:56.065Z,99.90
2023-02-07T05:34:24.075Z,99.90
2023-02-07T05:36:51.889Z,99.90
2023-02-07T05:39:19.575Z,99.90
2023-02-07T05:41:47.448Z,99.90
2023-02-07T05:44:15.218Z,99.90
2023-02-07T05:46:42.954Z,99.90
2023-02-07T05:49:10.859Z,99.90
2023-02-07T05:51:38.553Z,99.90
2023-02-07T05:54:06.384Z,99.90
2023-02-07T05:56:34.075Z,99.90
2023-02-07T05:59:01.899Z,99.90
2023-02-07T06:01:29.526Z,99.90
2023-02-07T06:03:57.518Z,99.90
2023-02-07T06:06:25.220Z,99.90
2023-02-07T06:08:52.888Z,99.90
2023-02-07T06:11:20.940Z,99.90
2023-02-07T06:13:48.698Z,99.90
2023-02-07T06:16:16.510Z,99.90
2023-02-07T06:18:44.254Z,99.90
2023-02-07T06:21:11.981Z,99.90
2023-02-07T06:23:39.787Z,99.90
2023-02-07T06:26:07.477Z,99.90
2023-02-07T06:28:35.258Z,99.90
2023-02-07T06:31:03.193Z,99.90
2023-02-07T06:33:31.005Z,99.90
2023-02-07T06:35:58.748Z,99.90
2023-02-07T06:38:26.619Z,99.90
2023-02-07T06:40:54.349Z,99.90
2023-02-07T06:43:22.153Z,99.90
2023-02-07T06:45:49.889Z,99.90
2023-02-07T06:48:17.633Z,99.90
2023-02-07T06:50:45.438Z,99.90
2023-02-07T06:53:13.144Z,99.90
2023-02-07T06:55:41.157Z,99.90
2023-02-07T06:58:09.066Z,99.90
2023-02-07T07:00:36.939Z,99.90
2023-02-07T07:03:05.389Z,99.90
2023-02-07T07:05:33.668Z,99.90
2023-02-07T07:08:01.488Z,99.90
2023-02-07T07:10:29.281Z,99.90
2023-02-07T07:12:57.033Z,99.90
2023-02-07T07:15:24.776Z,99.90
2023-02-07T07:17:52.772Z,99.90
2023-02-07T07:20:20.630Z,99.90
2023-02-07T07:22:49.667Z,99.90
2023-02-07T07:25:17.449Z,99.90
2023-02-07T07:27:45.182Z,99.90
2023-02-07T07:30:16.011Z,99.90
2023-02-07T07:32:43.859Z,99.90
2023-02-07T07:35:11.653Z,99.90
2023-02-07T07:37:39.432Z,99.90
2023-02-07T07:40:07.764Z,99.90
2023-02-07T07:42:36.844Z,99.90
2023-02-07T07:45:22.099Z,99.90
2023-02-07T07:47:49.895Z,99.90
2023-02-07T07:50:17.721Z,99.90
2023-02-07T07:52:45.531Z,99.90
2023-02-07T07:55:13.269Z,99.90
2023-02-07T07:57:41.072Z,99.90
2023-02-07T08:00:09.404Z,99.90
2023-02-07T08:02:44.246Z,99.90
2023-02-07T08:05:13.779Z,99.90
2023-02-07T08:07:41.868Z,99.90
2023-02-07T08:10:09.903Z,99.90
2023-02-07T08:12:37.747Z,99.90
2023-02-07T08:15:07.899Z,99.90
2023-02-07T08:17:37.237Z,99.90
2023-02-07T08:20:06.384Z,99.90
2023-02-07T08:22:34.190Z,99.90
2023-02-07T08:25:01.969Z,99.90
2023-02-07T08:27:29.873Z,99.90
2023-02-07T08:29:57.804Z,99.90
2023-02-07T08:32:25.628Z,99.90
2023-02-07T08:34:53.298Z,99.90
2023-02-07T08:37:21.019Z,99.90
2023-02-07T08:39:52.886Z,99.90
2023-02-07T08:42:20.998Z,99.90
2023-02-07T08:44:49.030Z,99.90
2023-02-07T08:47:18.022Z,99.90
2023-02-07T08:49:46.519Z,99.90
2023-02-07T08:52:14.242Z,99.90
2023-02-07T08:54:42.181Z,99.90
2023-02-07T08:57:09.976Z,99.90
2023-02-07T08:59:37.699Z,99.90
2023-02-07T09:02:05.425Z,99.90
2023-02-07T09:04:33.211Z,99.90
2023-02-07T09:07:00.958Z,99.90
2023-02-07T09:09:28.820Z,99.90
2023-02-07T09:11:56.554Z,99.90
2023-02-07T09:14:24.269Z,99.90
2023-02-07T09:16:52.020Z,99.90
2023-02-07T09:19:20.265Z,99.90
2023-02-07T09:21:49.631Z,99.90
2023-02-07T09:24:17.483Z,99.90
2023-02-07T09:26:45.220Z,99.90
2023-02-07T09:29:15.239Z,99.90
2023-02-07T09:31:44.011Z,99.90
2023-02-07T09:34:11.860Z,99.90
2023-02-07T09:36:39.985Z,99.90
2023-02-07T09:39:07.763Z,99.90
2023-02-07T09:41:59.507Z,99.90
2023-02-07T09:44:30.090Z,99.90
2023-02-07T09:47:06.142Z,99.90
2023-02-07T09:49:44.015Z,99.90
2023-02-07T09:52:20.224Z,99.90
2023-02-07T09:54:52.918Z,99.90
2023-02-07T09:57:47.387Z,99.90
2023-02-07T10:00:24.111Z,99.90
2023-02-07T10:03:06.140Z,99.90
2023-02-07T10:06:03.637Z,99.90
2023-02-07T10:08:40.665Z,99.90
2023-02-07T10:11:21.519Z,99.90
2023-02-07T10:14:20.437Z,99.90
2023-02-07T10:17:05.737Z,99.90
2023-02-07T10:19:45.696Z,99.90
2023-02-07T10:22:25.379Z,99.90
2023-02-07T10:25:08.168Z,99.90
2023-02-07T10:27:59.371Z,99.60
2023-02-07T10:30:39.232Z,99.90
2023-02-07T10:33:16.086Z,99.90
2023-02-07T10:35:46.149Z,99.90
2023-02-07T10:38:44.230Z,99.90
2023-02-07T10:41:30.099Z,99.90
2023-02-07T10:43:57.840Z,99.90
2023-02-07T10:46:25.892Z,99.90
2023-02-07T10:48:53.663Z,99.90
2023-02-07T10:51:30.463Z,99.90
2023-02-07T10:54:16.984Z,99.90
2023-02-07T10:56:55.981Z,99.90
2023-02-07T10:59:46.171Z,99.90
2023-02-07T11:02:29.460Z,99.90
2023-02-07T11:04:59.286Z,99.90
2023-02-07T11:07:29.380Z,99.90
2023-02-07T11:10:23.592Z,99.90
2023-02-07T11:12:56.002Z,99.90
2023-02-07T11:15:36.913Z,99.90
2023-02-07T11:18:05.666Z,99.90
2023-02-07T11:20:40.069Z,99.90
2023-02-07T11:23:14.040Z,99.90
2023-02-07T11:25:43.240Z,99.60
2023-02-07T11:28:27.556Z,99.20
2023-02-07T11:31:03.339Z,99.50
2023-02-07T11:33:34.076Z,99.60
2023-02-07T11:36:13.455Z,99.60
2023-02-07T11:38:48.341Z,98.90
2023-02-07T11:41:25.660Z,99.30
2023-02-07T11:44:14.934Z,98.90
2023-02-07T11:46:46.173Z,98.60
2023-02-07T11:49:27.998Z,98.30
2023-02-07T11:52:05.420Z,98.90
2023-02-07T11:54:34.145Z,98.70
2023-02-07T11:57:14.355Z,98.10
2023-02-07T12:00:18.283Z,97.80
2023-02-07T12:02:51.961Z,97.50
2023-02-07T12:05:27.572Z,98.00
2023-02-07T12:08:10.327Z,97.40
2023-02-07T12:10:41.343Z,97.30
2023-02-07T12:13:21.165Z,97.30
2023-02-07T12:15:56.879Z,97.20
2023-02-07T12:18:38.336Z,97.10
2023-02-07T12:21:26.875Z,98.20
2023-02-07T12:24:04.488Z,97.40
2023-02-07T12:26:39.748Z,97.70
2023-02-07T12:29:31.879Z,97.20
2023-02-07T12:32:27.245Z,97.20
2023-02-07T12:35:06.505Z,96.70
2023-02-07T12:37:56.586Z,97.00
2023-02-07T12:40:36.385Z,97.40
2023-02-07T12:43:27.640Z,96.50
2023-02-07T12:46:01.221Z,96.60
2023-02-07T12:48:43.814Z,96.70
2023-02-07T12:51:36.861Z,96.60
2023-02-07T12:54:35.493Z,96.30
2023-02-07T12:57:30.302Z,96.40
2023-02-07T13:00:04.228Z,96.90
2023-02-07T13:02:53.940Z,96.70
2023-02-07T13:05:40.274Z,97.10
2023-02-07T13:08:22.893Z,97.00
2023-02-07T13:11:08.923Z,96.80
2023-02-07T13:14:00.352Z,96.90
2023-02-07T13:16:54.931Z,96.90
2023-02-07T13:19:31.875Z,96.40
2023-02-07T13:22:06.747Z,95.90
2023-02-07T13:24:35.930Z,96.40
2023-02-07T13:27:17.895Z,96.40
2023-02-07T13:29:48.534Z,96.60
2023-02-07T13:32:25.491Z,96.60
2023-02-07T13:35:12.064Z,96.70
2023-02-07T13:38:38.367Z,96.30
2023-02-07T13:41:10.839Z,96.30
2023-02-07T13:44:08.742Z,95.50
2023-02-07T13:46:58.010Z,96.60
2023-02-07T13:49:48.806Z,97.60
2023-02-07T13:52:38.489Z,97.00
2023-02-07T13:55:38.349Z,97.20
2023-02-07T13:58:54.021Z,96.50
2023-02-07T14:01:28.495Z,97.00
2023-02-07T14:04:14.085Z,96.40
2023-02-07T14:06:54.071Z,96.40
2023-02-07T14:09:21.821Z,97.40
2023-02-07T14:11:50.785Z,96.40
2023-02-07T14:14:27.848Z,96.60
2023-02-07T14:17:00.149Z,97.00
2023-02-07T14:19:40.448Z,96.90
2023-02-07T14:22:15.957Z,96.80
2023-02-07T14:25:19.262Z,96.60
2023-02-07T14:27:50.014Z,97.90
2023-02-07T14:30:39.122Z,97.90
2023-02-07T14:33:14.746Z,98.10
2023-02-07T14:36:05.839Z,98.20
2023-02-07T14:38:41.328Z,98.70
2023-02-07T14:41:15.732Z,99.30
2023-02-07T14:44:08.501Z,99.30
2023-02-07T14:46:51.521Z,99.00
2023-02-07T14:49:25.342Z,99.10
2023-02-07T14:52:01.128Z,99.00
2023-02-07T14:54:40.703Z,98.90
2023-02-07T14:57:34.529Z,99.20
2023-02-07T15:00:28.706Z,99.40
2023-02-07T15:02:59.024Z,99.80
2023-02-07T15:05:35.952Z,99.80
2023-02-07T15:08:03.749Z,99.90
2023-02-07T15:10:39.873Z,99.90
2023-02-07T15:13:25.712Z,99.70
2023-02-07T15:15:57.163Z,99.90
2023-02-07T15:18:30.784Z,99.90
2023-02-07T15:20:59.651Z,99.90
2023-02-07T15:23:29.831Z,99.90
2023-02-07T15:26:06.013Z,99.90
2023-02-07T15:28:34.319Z,99.90
2023-02-07T15:31:03.864Z,99.90
2023-02-07T15:33:59.586Z,99.90
2023-02-07T15:36:38.205Z,99.90
2023-02-07T15:39:13.548Z,99.90
2023-02-07T15:41:41.537Z,99.90
2023-02-07T15:44:24.159Z,99.90
2023-02-07T15:46:58.241Z,99.90
2023-02-07T15:49:28.808Z,99.90
2023-02-07T15:52:25.077Z,99.90
2023-02-07T15:54:54.621Z,99.90
2023-02-07T15:57:25.743Z,99.90
2023-02-07T15:59:55.936Z,99.90
2023-02-07T16:02:31.728Z,99.90
2023-02-07T16:05:08.213Z,99.90
2023-02-07T16:07:36.847Z,99.90
2023-02-07T16:10:23.311Z,99.90
2023-02-07T16:13:09.990Z,99.90
2023-02-07T16:15:40.249Z,99.90
2023-02-07T16:18:34.976Z,99.90
2023-02-07T16:21:03.016Z,99.90
2023-02-07T16:23:30.596Z,99.90
2023-02-07T16:25:58.784Z,99.90
2023-02-07T16:28:27.367Z,99.90
2023-02-07T16:30:56.229Z,99.90
2023-02-07T16:33:23.946Z,99.90
2023-02-07T16:35:51.844Z,99.90
2023-02-07T16:38:19.578Z,99.90
2023-02-07T16:40:48.590Z,99.90
2023-02-07T16:43:34.987Z,99.90
2023-02-07T16:46:03.394Z,99.90
2023-02-07T16:48:31.104Z,99.90
2023-02-07T16:50:59.355Z,99.90
2023-02-07T16:53:27.761Z,99.90
2023-02-07T16:55:57.637Z,99.90
2023-02-07T16:58:31.160Z,99.90
2023-02-07T17:00:58.894Z,99.90
2023-02-07T17:03:26.561Z,99.90
2023-02-07T17:05:54.263Z,99.90
2023-02-07T17:08:27.175Z,99.90
2023-02-07T17:10:59.221Z,99.90
2023-02-07T17:13:27.174Z,99.90
2023-02-07T17:15:55.079Z,99.90
2023-02-07T17:18:22.784Z,99.90
2023-02-07T17:20:50.644Z,99.90
2023-02-07T17:23:18.660Z,99.90
2023-02-07T17:25:46.763Z,99.90
2023-02-07T17:28:17.863Z,99.90
2023-02-07T17:30:45.823Z,99.90
2023-02-07T17:33:13.895Z,99.90
2023-02-07T17:35:41.689Z,99.90
2023-02-07T17:38:10.791Z,99.90
2023-02-07T17:40:41.280Z,99.90
2023-02-07T17:43:09.322Z,99.90
2023-02-07T17:45:38.156Z,99.90
2023-02-07T17:48:06.506Z,99.90
2023-02-07T17:50:42.275Z,99.90
2023-02-07T17:53:11.249Z,99.90
2023-02-07T17:55:39.192Z,99.90
2023-02-07T17:58:07.356Z,99.90
2023-02-07T18:00:39.500Z,99.90
2023-02-07T18:03:08.228Z,99.90
2023-02-07T18:05:36.468Z,99.90
2023-02-07T18:08:04.389Z,99.90
2023-02-07T18:10:35.033Z,99.90
2023-02-07T18:13:03.009Z,99.90
2023-02-07T18:15:31.313Z,99.90
2023-02-07T18:17:59.168Z,99.90
2023-02-07T18:20:32.985Z,99.90
2023-02-07T18:23:01.191Z,99.90
2023-02-07T18:25:30.002Z,99.90
2023-02-07T18:27:58.509Z,99.90
2023-02-07T18:30:27.857Z,99.90
2023-02-07T18:32:55.582Z,99.90
2023-02-07T18:35:23.381Z,99.90
2023-02-07T18:37:51.369Z,99.90
2023-02-07T18:40:19.184Z,99.90
2023-02-07T18:42:47.058Z,99.90
2023-02-07T18:45:14.927Z,99.90
2023-02-07T18:47:43.552Z,99.90
2023-02-07T18:50:12.390Z,99.90
2023-02-07T18:52:40.284Z,99.90
2023-02-07T18:55:08.714Z,99.90
2023-02-07T18:57:36.580Z,99.90
2023-02-07T19:00:09.680Z,99.90
2023-02-07T19:02:37.618Z,99.90
2023-02-07T19:05:05.772Z,99.90
2023-02-07T19:07:33.489Z,99.90
2023-02-07T19:10:01.982Z,99.90
2023-02-07T19:12:29.667Z,99.90
2023-02-07T19:14:57.525Z,99.90
2023-02-07T19:17:25.390Z,99.90
2023-02-07T19:19:53.238Z,99.90
2023-02-07T19:22:30.038Z,99.90
2023-02-07T19:25:03.004Z,99.90
2023-02-07T19:27:30.773Z,99.90
2023-02-07T19:29:58.483Z,99.90
2023-02-07T19:32:26.290Z,99.90
2023-02-07T19:34:53.995Z,99.90
2023-02-07T19:37:22.614Z,99.90
2023-02-07T19:39:50.403Z,99.90
2023-02-07T19:42:18.132Z,99.90
2023-02-07T19:44:45.878Z,99.90
2023-02-07T19:47:13.656Z,99.90
2023-02-07T19:49:41.666Z,99.90
2023-02-07T19:52:09.458Z,99.90
2023-02-07T19:54:37.189Z,99.90
2023-02-07T19:57:04.999Z,99.90
2023-02-07T19:59:32.787Z,99.90
2023-02-07T20:02:01.843Z,99.90
2023-02-07T20:04:29.717Z,99.90
2023-02-07T20:06:57.541Z,99.90
2023-02-07T20:09:25.279Z,99.90
2023-02-07T20:11:52.988Z,99.90
2023-02-07T20:14:20.757Z,99.90
2023-02-07T20:16:49.420Z,99.90
2023-02-07T20:19:17.418Z,99.90
2023-02-07T20:21:45.308Z,99.90
2023-02-07T20:24:13.103Z,99.90
2023-02-07T20:26:43.283Z,99.90
2023-02-07T20:29:15.776Z,99.90
2023-02-07T20:31:44.446Z,99.90
2023-02-07T20:34:12.866Z,99.90
2023-02-07T20:36:41.950Z,99.90
2023-02-07T20:39:21.314Z,99.90
2023-02-07T20:41:50.132Z,99.90
2023-02-07T20:44:20.960Z,99.90
2023-02-07T20:46:49.847Z,99.90
2023-02-07T20:49:22.039Z,99.90
2023-02-07T20:51:51.989Z,99.90
2023-02-07T20:54:23.562Z,99.90
2023-02-07T20:56:53.315Z,99.90
2023-02-07T20:59:28.296Z,99.90
2023-02-07T21:01:56.703Z,99.90
2023-02-07T21:04:25.669Z,99.90
2023-02-07T21:06:54.289Z,99.90
2023-02-07T21:09:22.338Z,99.90
2023-02-07T21:11:52.239Z,99.90
2023-02-07T21:14:28.170Z,99.90
2023-02-07T21:16:58.057Z,99.90
2023-02-07T21:19:26.116Z,99.90
2023-02-07T21:21:55.250Z,99.90
2023-02-07T21:24:23.756Z,99.90
2023-02-07T21:26:53.572Z,99.90
2023-02-07T21:29:22.300Z,99.90
2023-02-07T21:31:50.541Z,99.90
2023-02-07T21:34:21.360Z,99.90
2023-02-07T21:36:49.932Z,99.90
2023-02-07T21:39:17.649Z,99.90
2023-02-07T21:41:46.924Z,99.90
2023-02-07T21:44:15.384Z,99.90
2023-02-07T21:46:46.337Z,99.90
2023-02-07T21:49:17.104Z,99.90
2023-02-07T21:51:46.455Z,99.90
2023-02-07T21:54:14.238Z,99.90
2023-02-07T21:56:43.455Z,99.90
2023-02-07T21:59:14.471Z,99.90
2023-02-07T22:01:43.182Z,99.90
2023-02-07T22:04:11.904Z,99.90
2023-02-07T22:06:42.343Z,99.90
2023-02-07T22:09:12.499Z,99.90
2023-02-07T22:11:40.318Z,99.90
2023-02-07T22:14:08.244Z,99.90
2023-02-07T22:16:36.363Z,99.90
2023-02-07T22:19:06.443Z,99.90
2023-02-07T22:21:36.378Z,99.90
2023-02-07T22:24:05.849Z,99.90
2023-02-07T22:26:34.577Z,99.90
2023-02-07T22:29:03.645Z,99.90
2023-02-07T22:31:33.764Z,99.90
2023-02-07T22:34:07.967Z,99.90
2023-02-07T22:36:38.690Z,99.90
2023-02-07T22:39:08.097Z,99.90
2023-02-07T22:41:36.660Z,99.90
2023-02-07T22:44:04.926Z,99.90
2023-02-07T22:46:32.913Z,99.90
2023-02-07T22:49:00.707Z,99.90
2023-02-07T22:51:34.223Z,99.90
2023-02-07T22:54:07.076Z,99.90
2023-02-07T22:56:36.855Z,99.90
2023-02-07T22:59:05.760Z,99.90
2023-02-07T23:01:36.834Z,99.90
2023-02-07T23:04:07.924Z,99.90
2023-02-07T23:06:35.914Z,99.90
2023-02-07T23:09:05.513Z,99.90
2023-02-07T23:11:33.768Z,99.90
2023-02-07T23:14:02.024Z,99.90
2023-02-07T23:16:31.410Z,99.90
2023-02-07T23:19:06.820Z,99.90
2023-02-07T23:21:34.762Z,99.90
2023-02-07T23:24:04.553Z,99.90
2023-02-07T23:26:32.609Z,99.90
2023-02-07T23:29:00.392Z,99.90
2023-02-07T23:31:28.261Z,99.90
2023-02-07T23:33:56.038Z,99.90
2023-02-07T23:36:23.921Z,99.90
2023-02-07T23:38:51.930Z,99.90
2023-02-07T23:41:20.144Z,99.90
2023-02-07T23:43:47.999Z,99.90
2023-02-07T23:46:17.032Z,99.90
2023-02-07T23:48:45.424Z,99.90
2023-02-07T23:51:13.792Z,99.90
2023-02-07T23:53:43.083Z,99.90
2023-02-07T23:56:15.999Z,99.90
2023-02-07T23:58:45.200Z,99.90
